Time;durP1;ratioP1;P1;durP2;ratioP2;P2;SDS_P1;SDS_P2;PMS_P1;PMS_P2;Temp;Humidity;BMP_temperature;BMP_pressure;BME280_temperature;BME280_humidity;BME280_pressure;Samples;Min_cycle;Max_cycle;Signal;HPM_P1;HPM_P2
2023/04/18 00:04:45;;;;;;;19.20;3.20;;;;;;;7.38;79.40;100953.00;10377260;28;20034;-78
2023/04/18 00:09:45;;;;;;;14.90;3.17;;;;;;;7.37;78.63;100956.63;10377938;28;20044;-76
2023/04/18 00:14:49;;;;;;;15.02;2.90;;;;;;;7.31;79.92;100952.69;10377227;28;20383;-77
2023/04/18 00:19:51;;;;;;;16.48;2.95;;;;;;;7.35;78.65;100958.56;10359381;28;20053;-77
2023/04/18 00:24:52;;;;;;;18.95;2.88;;;;;;;7.25;79.27;100954.06;10376363;28;20077;-77
2023/04/18 00:29:52;;;;;;;14.45;2.40;;;;;;;7.22;79.23;100949.03;10376048;28;20531;-78
2023/04/18 00:34:53;;;;;;;20.48;3.20;;;;;;;7.29;79.31;100954.63;10359030;28;20502;-79
2023/04/18 00:39:54;;;;;;;19.85;2.90;;;;;;;7.31;78.99;100963.28;10358718;28;20156;-78
2023/04/18 00:44:55;;;;;;;16.92;3.53;;;;;;;6.66;78.79;100856.16;10374947;28;20077;-77
2023/04/18 00:49:55;;;;;;;17.42;2.83;;;;;;;6.94;78.79;100916.22;10375401;28;20127;-77
2023/04/18 00:54:56;;;;;;;14.52;2.70;;;;;;;6.81;78.98;100908.50;10374458;28;20042;-78
2023/04/18 00:59:59;;;;;;;16.88;3.53;;;;;;;6.98;78.42;100935.28;10375905;28;20052;-77
2023/04/18 01:05:02;;;;;;;17.08;2.83;;;;;;;7.07;78.34;100958.28;10374512;28;20061;-76
2023/04/18 01:10:03;;;;;;;9.20;2.50;;;;;;;6.91;78.17;100928.84;10375274;28;20041;-77
2023/04/18 01:15:05;;;;;;;18.27;3.17;;;;;;;6.93;77.83;100935.66;10372335;28;20081;-78
2023/04/18 01:20:06;;;;;;;17.83;3.17;;;;;;;6.47;78.47;100878.81;10371607;28;20050;-77
2023/04/18 01:25:08;;;;;;;15.23;2.45;;;;;;;6.88;78.64;100950.22;10374983;28;20069;-77
2023/04/18 01:30:09;;;;;;;16.00;2.70;;;;;;;6.54;78.12;100911.66;10374131;28;20108;-78
2023/04/18 01:35:10;;;;;;;13.52;2.95;;;;;;;6.42;78.38;100899.47;10373933;28;20046;-77
2023/04/18 01:40:11;;;;;;;20.52;3.55;;;;;;;6.66;78.82;100949.38;10373695;28;20413;-77
2023/04/18 01:45:12;;;;;;;16.05;3.42;;;;;;;6.55;78.77;100936.22;10373294;28;20044;-77
2023/04/18 01:50:13;;;;;;;11.98;2.85;;;;;;;6.44;79.15;100937.13;10373659;28;20556;-77
2023/04/18 01:55:13;;;;;;;23.33;3.53;;;;;;;6.61;78.67;100964.75;10372782;28;20041;-77
2023/04/18 02:00:15;;;;;;;18.75;3.70;;;;;;;6.51;79.46;100948.84;10348978;28;20129;-78
2023/04/18 02:05:17;;;;;;;23.45;3.38;;;;;;;6.35;79.36;100929.97;10372409;28;20579;-77
2023/04/18 02:10:18;;;;;;;23.20;2.90;;;;;;;6.52;79.65;100953.19;10373068;28;20037;-77
2023/04/18 02:15:19;;;;;;;15.02;2.72;;;;;;;6.33;79.83;100929.25;10372928;28;20418;-77
2023/04/18 02:20:20;;;;;;;20.27;3.58;;;;;;;5.77;80.20;100853.75;10372712;28;20089;-77
2023/04/18 02:25:23;;;;;;;14.23;2.72;;;;;;;6.17;79.85;100913.84;10372764;28;20143;-78
2023/04/18 02:30:24;;;;;;;11.85;2.75;;;;;;;5.84;79.28;100870.78;10372120;28;20057;-79
2023/04/18 02:35:26;;;;;;;14.95;2.60;;;;;;;6.34;79.46;100968.72;10353773;28;20185;-77
2023/04/18 02:40:27;;;;;;;10.60;2.63;;;;;;;5.82;79.07;100877.97;10372924;28;20512;-77
2023/04/18 02:45:28;;;;;;;16.27;2.65;;;;;;;5.74;78.98;100869.81;10354131;28;20040;-78
2023/04/18 02:50:30;;;;;;;9.90;2.88;;;;;;;6.34;79.46;100963.47;10371489;28;20041;-77
2023/04/18 02:55:31;;;;;;;24.88;3.33;;;;;;;6.19;80.19;100946.22;10372042;28;20046;-77
2023/04/18 03:00:33;;;;;;;25.05;3.00;;;;;;;6.25;79.73;100943.09;10372477;28;20136;-77
2023/04/18 03:05:34;;;;;;;18.20;3.08;;;;;;;6.18;80.22;100936.63;10372041;28;20044;-77
2023/04/18 03:10:35;;;;;;;15.98;3.30;;;;;;;6.14;80.54;100929.94;10375367;28;20511;-77
2023/04/18 03:15:36;;;;;;;20.30;3.33;;;;;;;5.90;80.96;100882.63;10337477;28;20038;-77
2023/04/18 03:20:37;;;;;;;23.63;3.22;;;;;;;6.13;81.21;100913.28;10346086;28;20540;-79
2023/04/18 03:25:38;;;;;;;13.30;2.40;;;;;;;6.36;81.18;100956.22;10372052;28;20057;-78
2023/04/18 03:30:39;;;;;;;13.20;2.78;;;;;;;5.89;80.67;100857.22;10378412;28;20534;-75
2023/04/18 03:35:40;;;;;;;15.27;2.97;;;;;;;6.35;81.22;100929.97;10377479;28;20045;-79
2023/04/18 03:40:43;;;;;;;15.32;2.92;;;;;;;6.38;80.90;100935.00;10378210;28;20038;-77
2023/04/18 03:45:46;;;;;;;14.38;2.80;;;;;;;6.07;80.81;100871.59;10377154;28;20034;-77
2023/04/18 03:50:46;;;;;;;20.88;2.88;;;;;;;5.77;80.56;100822.13;10363887;28;20397;-76
2023/04/18 03:55:47;;;;;;;19.95;2.65;;;;;;;5.60;80.44;100780.53;10373258;28;20056;-79
2023/04/18 04:00:49;;;;;;;17.08;3.05;;;;;;;6.75;80.05;100959.19;10377933;28;20034;-80
2023/04/18 04:05:50;;;;;;;15.27;2.25;;;;;;;6.51;80.41;100922.47;10377220;28;20041;-77
2023/04/18 04:10:51;;;;;;;17.13;2.78;;;;;;;6.39;80.17;100905.84;10356792;28;20041;-79
2023/04/18 04:15:52;;;;;;;22.00;2.95;;;;;;;6.32;80.45;100891.50;10374953;28;20042;-79
2023/04/18 04:20:53;;;;;;;16.20;2.58;;;;;;;6.55;79.66;100923.03;10369975;28;20506;-78
2023/04/18 04:25:54;;;;;;;13.13;2.58;;;;;;;6.83;79.57;100962.03;10375284;28;20472;-79
2023/04/18 04:30:56;;;;;;;16.90;3.08;;;;;;;6.55;80.57;100928.31;10376081;28;20526;-81
2023/04/18 04:35:57;;;;;;;17.33;3.10;;;;;;;6.84;79.71;100960.22;10376679;28;20045;-80
2023/04/18 04:40:57;;;;;;;12.07;3.03;;;;;;;6.99;79.24;100964.19;10374489;28;20465;-78
2023/04/18 04:45:58;;;;;;;13.52;3.22;;;;;;;6.91;78.94;100931.47;10375079;28;20050;-79
2023/04/18 04:51:00;;;;;;;15.15;2.45;;;;;;;7.03;79.16;100944.50;10376430;28;20057;-79
2023/04/18 04:56:00;;;;;;;14.07;2.50;;;;;;;7.28;78.86;100952.97;10375852;28;20081;-79
2023/04/18 05:01:01;;;;;;;13.52;3.05;;;;;;;7.14;78.20;100903.09;10375511;28;20076;-79
2023/04/18 05:06:02;;;;;;;12.20;2.35;;;;;;;7.37;78.14;100914.34;10374791;28;20052;-78
2023/04/18 05:11:03;;;;;;;18.88;3.28;;;;;;;7.53;77.40;100935.81;10375799;28;20481;-78
2023/04/18 05:16:05;;;;;;;20.23;3.08;;;;;;;7.85;77.59;100982.41;10375273;28;20510;-79
2023/04/18 05:21:06;;;;;;;19.25;3.20;;;;;;;7.29;76.69;100878.00;10374972;28;20049;-79
2023/04/18 05:26:07;;;;;;;18.17;2.78;;;;;;;7.53;76.47;100901.44;10375078;28;20382;-78
2023/04/18 05:31:08;;;;;;;22.42;2.80;;;;;;;7.88;76.08;100951.25;10374270;28;20054;-78
2023/04/18 05:36:08;;;;;;;16.45;2.85;;;;;;;8.04;75.86;100960.47;10373713;28;20073;-79
2023/04/18 05:41:09;;;;;;;26.40;3.13;;;;;;;7.63;75.65;100877.66;10373723;28;20058;-78
2023/04/18 05:46:11;;;;;;;12.07;2.47;;;;;;;8.31;75.52;100973.03;10373782;28;20038;-78
2023/04/18 05:51:12;;;;;;;23.20;3.22;;;;;;;8.01;74.90;100904.19;10373740;28;20080;-79
2023/04/18 05:56:12;;;;;;;19.25;2.25;;;;;;;8.38;74.28;100953.84;10373441;28;20509;-79
2023/04/18 06:01:13;;;;;;;24.15;3.03;;;;;;;7.84;74.38;100864.34;10373121;28;20052;-78
2023/04/18 06:06:14;;;;;;;21.50;3.15;;;;;;;8.21;73.86;100886.50;10372588;28;20042;-76
2023/04/18 06:11:15;;;;;;;17.52;2.75;;;;;;;8.63;73.48;100968.34;10372472;28;20038;-79
2023/04/18 06:16:16;;;;;;;20.63;3.28;;;;;;;8.72;73.53;100987.03;10372734;28;20042;-77
2023/04/18 06:21:17;;;;;;;18.63;2.75;;;;;;;8.78;73.19;100986.47;10373173;28;20565;-77
2023/04/18 06:26:17;;;;;;;16.45;2.78;;;;;;;8.68;72.89;100944.91;10372586;28;20038;-77
2023/04/18 06:31:18;;;;;;;19.33;2.90;;;;;;;9.12;72.43;100992.13;10371575;28;20104;-77
2023/04/18 06:36:20;;;;;;;16.88;2.88;;;;;;;9.02;72.46;100986.00;10372489;28;20132;-75
2023/04/18 06:41:21;;;;;;;21.23;3.00;;;;;;;9.00;72.76;100974.72;10371876;28;20050;-78
2023/04/18 06:46:22;;;;;;;19.83;3.08;;;;;;;8.31;72.08;100836.22;10378898;28;20049;-79
2023/04/18 06:51:23;;;;;;;18.88;2.88;;;;;;;9.23;72.41;100959.31;10381199;28;20064;-78
2023/04/18 06:56:23;;;;;;;11.55;3.05;;;;;;;9.30;71.82;100933.88;10380274;28;20045;-78
2023/04/18 07:01:24;;;;;;;20.95;3.13;;;;;;;9.69;71.65;100960.25;10380811;28;20053;-77
2023/04/18 07:06:25;;;;;;;23.73;3.42;;;;;;;9.95;71.37;100971.00;10379828;28;20048;-77
2023/04/18 07:11:27;;;;;;;22.17;3.70;;;;;;;9.49;71.12;100879.94;10361879;28;20034;-77
2023/04/18 07:16:27;;;;;;;30.27;3.72;;;;;;;9.74;70.98;100912.88;10379126;28;20560;-77
2023/04/18 07:21:28;;;;;;;19.88;3.53;;;;;;;9.02;71.20;100803.97;10379598;28;20099;-78
2023/04/18 07:26:29;;;;;;;13.40;2.88;;;;;;;9.58;71.11;100879.06;10379139;28;20524;-78
2023/04/18 07:31:30;;;;;;;26.95;3.33;;;;;;;10.26;70.67;100953.81;10379111;28;20058;-79
2023/04/18 07:36:31;;;;;;;21.90;3.92;;;;;;;10.47;70.45;100948.19;10378934;28;20045;-77
2023/04/18 07:41:33;;;;;;;16.73;4.05;;;;;;;10.22;70.04;100890.47;10378233;28;20049;-79
2023/04/18 07:46:34;;;;;;;14.30;3.63;;;;;;;10.62;69.98;100942.31;10379282;28;20092;-78
2023/04/18 07:51:34;;;;;;;23.50;4.03;;;;;;;10.68;69.71;100945.22;10377636;28;20084;-77
2023/04/18 07:56:35;;;;;;;17.65;3.33;;;;;;;10.66;69.40;100955.16;10378242;28;20044;-78
2023/04/18 08:01:36;;;;;;;18.42;4.10;;;;;;;10.20;69.62;100863.25;10377329;28;20042;-79
2023/04/18 08:06:37;;;;;;;19.42;3.38;;;;;;;10.40;69.12;100895.81;10377915;28;20034;-78
2023/04/18 08:11:40;;;;;;;23.83;3.50;;;;;;;10.76;68.93;100938.28;10345962;28;20411;-78
2023/04/18 08:16:40;;;;;;;18.77;3.72;;;;;;;10.35;69.23;100898.94;10336123;28;20042;-78
2023/04/18 08:21:41;;;;;;;18.88;5.13;;;;;;;10.02;69.38;100853.50;10336688;28;20038;-77
2023/04/18 08:26:42;;;;;;;25.77;4.50;;;;;;;10.25;69.22;100867.09;10335851;28;20038;-78
2023/04/18 08:31:42;;;;;;;17.73;4.22;;;;;;;10.73;69.19;100916.31;10336073;28;20050;-78
2023/04/18 08:36:43;;;;;;;21.63;4.30;;;;;;;10.65;68.57;100879.09;10335984;28;20077;-77
2023/04/18 08:41:53;;;;;;;20.88;4.15;;;;;;;11.04;68.72;100915.88;10335867;28;20038;-78
2023/04/18 08:46:56;;;;;;;15.73;3.55;;;;;;;11.09;68.70;100915.41;10335800;28;20402;-77
2023/04/18 08:51:59;;;;;;;21.63;4.07;;;;;;;11.31;67.82;100908.72;10335674;28;20038;-77
2023/04/18 08:57:09;;;;;;;15.30;4.17;;;;;;;11.65;67.43;100914.00;10335296;28;20383;-77
2023/04/18 09:02:14;;;;;;;19.25;4.45;;;;;;;11.73;67.15;100905.22;10334973;28;20541;-77
2023/04/18 09:07:16;;;;;;;18.88;3.90;;;;;;;11.86;67.06;100908.28;10334391;28;20129;-76
2023/04/18 09:12:22;;;;;;;30.20;4.22;;;;;;;11.41;66.47;100792.38;10334723;28;20070;-77
2023/04/18 09:17:44;;;;;;;19.95;3.60;;;;;;;12.10;65.32;100849.75;10334384;28;20046;-77
2023/04/18 09:22:53;;;;;;;22.52;5.10;;;;;;;12.48;65.15;100863.41;10334225;28;20060;-77
2023/04/18 09:27:59;;;;;;;16.30;3.75;;;;;;;12.85;64.74;100877.19;10333974;28;20042;-77
2023/04/18 09:33:00;;;;;;;21.55;4.13;;;;;;;12.78;64.06;100843.19;10334015;28;20137;-77
2023/04/18 09:38:01;;;;;;;20.98;3.70;;;;;;;13.23;63.18;100876.41;10333414;28;20138;-78
2023/04/18 09:43:19;;;;;;;16.63;3.55;;;;;;;13.37;62.51;100856.22;10333990;28;20147;-77
2023/04/18 09:48:20;;;;;;;16.00;3.42;;;;;;;13.57;61.92;100856.59;10333342;28;20594;-77
2023/04/18 09:53:22;;;;;;;21.83;3.72;;;;;;;13.50;61.07;100836.97;10332613;28;20466;-78
2023/04/18 09:58:29;;;;;;;21.15;3.67;;;;;;;13.88;60.38;100834.38;10332904;28;20056;-78
2023/04/18 10:03:40;;;;;;;17.80;3.53;;;;;;;14.33;59.42;100835.38;10332388;28;20550;-78
2023/04/18 10:08:43;;;;;;;22.75;4.30;;;;;;;14.33;59.45;100790.78;10332713;28;20068;-78
2023/04/18 10:13:47;;;;;;;19.33;3.63;;;;;;;14.19;58.90;100777.38;10332890;28;20042;-78
2023/04/18 10:18:50;;;;;;;16.75;3.30;;;;;;;13.84;59.04;100771.66;10330990;28;20045;-80
2023/04/18 10:23:50;;;;;;;26.92;3.72;;;;;;;14.29;59.17;100831.41;10331587;28;20030;-79
2023/04/18 10:28:58;;;;;;;20.75;3.90;;;;;;;14.56;58.56;100844.19;10331420;28;20498;-77
2023/04/18 10:34:00;;;;;;;18.52;3.17;;;;;;;14.83;58.16;100847.28;10361905;28;20441;-79
2023/04/18 10:39:20;;;;;;;16.48;3.80;;;;;;;14.79;57.88;100812.06;10372191;28;20046;-79
2023/04/18 10:44:22;;;;;;;21.92;3.20;;;;;;;14.30;57.79;100748.38;10361658;28;20046;-81
2023/04/18 10:49:24;;;;;;;21.75;3.38;;;;;;;14.58;57.92;100817.31;10352185;28;20046;-79
2023/04/18 10:54:32;;;;;;;21.25;6.65;;;;;;;14.68;57.66;100830.41;10349980;28;20056;-78
2023/04/18 10:59:36;;;;;;;12.77;4.07;;;;;;;14.54;58.07;100814.16;10371989;28;20048;-78
2023/04/18 11:04:37;;;;;;;;;;;;;;;14.77;58.10;100819.41;10372197;28;20041;-78
2023/04/18 11:09:38;;;;;;;10.48;2.90;;;;;;;14.62;57.68;100807.88;10372879;28;19917;-79
2023/04/18 11:14:44;;;;;;;21.20;3.08;;;;;;;14.77;57.66;100811.41;10371003;28;20119;-78
2023/04/18 11:19:45;;;;;;;17.85;3.13;;;;;;;14.73;57.74;100806.63;10371490;28;20087;-79
2023/04/18 11:24:46;;;;;;;16.65;3.08;;;;;;;14.53;57.29;100752.84;10372888;28;20048;-78
2023/04/18 11:29:52;;;;;;;21.60;4.18;;;;;;;14.84;57.26;100806.16;10354169;28;20517;-78
2023/04/18 11:34:54;;;;;;;21.25;3.53;;;;;;;14.51;57.55;100777.09;10360748;28;20058;-78
2023/04/18 11:39:55;;;;;;;17.05;3.78;;;;;;;14.75;57.55;100802.75;10378804;28;20048;-79
2023/04/18 11:44:55;;;;;;;27.25;3.60;;;;;;;14.81;57.34;100787.81;10378615;28;20046;-79
2023/04/18 11:50:00;;;;;;;21.02;3.13;;;;;;;14.92;57.17;100790.00;10377648;28;20092;-80
2023/04/18 11:55:25;;;;;;;14.55;3.08;;;;;;;15.16;57.10;100783.50;10370592;28;20092;-78
2023/04/18 12:00:38;;;;;;;17.38;2.92;;;;;;;15.45;56.78;100773.78;10377055;28;20042;-79
2023/04/18 12:05:38;;;;;;;16.52;3.30;;;;;;;15.03;56.25;100682.53;10360148;28;20037;-77
2023/04/18 12:10:49;;;;;;;10.35;2.67;;;;;;;15.27;56.09;100739.38;10377017;28;20034;-79
2023/04/18 12:15:50;;;;;;;14.40;2.75;;;;;;;15.21;56.63;100734.78;10359989;28;20151;-78
2023/04/18 12:20:52;;;;;;;19.45;3.33;;;;;;;15.41;56.21;100725.13;10377714;28;20493;-77
2023/04/18 12:26:06;;;;;;;10.23;2.60;;;;;;;15.23;55.79;100684.59;10376069;28;20038;-79
2023/04/18 12:31:07;;;;;;;21.65;3.03;;;;;;;14.98;55.71;100650.13;10329699;28;20521;-77
2023/04/18 12:36:09;;;;;;;18.48;2.92;;;;;;;14.94;56.01;100645.38;10359768;28;20049;-78
2023/04/18 12:41:10;;;;;;;20.10;2.95;;;;;;;15.29;56.23;100721.31;10338561;28;20482;-77
2023/04/18 12:46:10;;;;;;;13.07;2.85;;;;;;;15.41;56.31;100740.38;10336482;28;20034;-77
2023/04/18 12:51:11;;;;;;;14.50;3.10;;;;;;;15.34;56.30;100745.63;10347348;28;20494;-78
2023/04/18 12:56:12;;;;;;;15.35;3.22;;;;;;;15.26;56.76;100733.22;10359902;28;20149;-77
2023/04/18 13:01:14;;;;;;;13.50;3.10;;;;;;;15.16;56.74;100705.09;10376328;28;20137;-78
2023/04/18 13:06:14;;;;;;;11.80;2.75;;;;;;;14.89;57.00;100686.06;10375545;28;20037;-78
2023/04/18 13:11:15;;;;;;;16.38;3.10;;;;;;;14.88;57.26;100687.06;10374686;28;20048;-77
2023/04/18 13:16:16;;;;;;;13.93;3.22;;;;;;;14.82;57.40;100687.81;10374649;28;20069;-78
2023/04/18 13:21:17;;;;;;;17.70;3.25;;;;;;;14.98;57.73;100733.06;10374532;28;20132;-78
2023/04/18 13:26:17;;;;;;;20.95;3.28;;;;;;;14.63;58.03;100691.06;10374158;28;20042;-78
2023/04/18 13:31:18;;;;;;;14.32;2.80;;;;;;;14.79;58.31;100720.31;10361644;28;20057;-77
2023/04/18 13:36:22;;;;;;;16.98;2.83;;;;;;;14.63;58.81;100718.66;10372548;28;20133;-78
2023/04/18 13:41:23;;;;;;;;;;;;;;;14.71;58.05;100733.75;10373493;28;20040;-81
2023/04/18 13:46:25;;;;;;;14.77;2.90;;;;;;;14.41;58.55;100708.84;10373006;28;20012;-77
2023/04/18 13:51:26;;;;;;;15.43;3.00;;;;;;;14.42;59.24;100726.53;10372270;28;20045;-77
2023/04/18 13:56:27;;;;;;;13.57;2.92;;;;;;;14.22;58.88;100694.19;10372845;28;20038;-78
2023/04/18 14:01:28;;;;;;;13.32;3.60;;;;;;;13.78;59.44;100614.84;10374141;28;20046;-75
2023/04/18 14:06:29;;;;;;;13.68;3.60;;;;;;;13.98;59.37;100660.53;10373287;28;20029;-76
2023/04/18 14:11:30;;;;;;;22.42;2.83;;;;;;;14.14;59.76;100709.28;10355570;28;20053;-76
2023/04/18 14:16:32;;;;;;;13.23;3.25;;;;;;;13.82;59.76;100673.06;10371070;28;20049;-75
2023/04/18 14:21:33;;;;;;;15.40;3.10;;;;;;;13.50;60.48;100634.13;10371245;28;20050;-77
2023/04/18 14:26:33;;;;;;;10.48;2.97;;;;;;;13.63;60.74;100669.03;10373308;28;20037;-79
2023/04/18 14:31:35;;;;;;;11.77;3.10;;;;;;;13.64;60.82;100688.53;10372231;28;20064;-77
2023/04/18 14:36:36;;;;;;;15.88;3.70;;;;;;;13.44;61.28;100669.53;10371688;28;20045;-76
2023/04/18 14:41:36;;;;;;;12.10;3.25;;;;;;;13.16;61.53;100627.34;10372387;28;20038;-78
2023/04/18 14:46:37;;;;;;;12.15;3.45;;;;;;;13.57;61.51;100698.28;10372186;28;20041;-77
2023/04/18 14:51:38;;;;;;;12.25;3.25;;;;;;;13.21;61.63;100651.63;10354964;28;20049;-78
2023/04/18 14:56:39;;;;;;;20.63;3.60;;;;;;;13.37;62.26;100671.22;10371359;28;20124;-77
2023/04/18 15:01:40;;;;;;;20.95;3.63;;;;;;;12.80;62.47;100605.75;10371901;28;20636;-76
2023/04/18 15:06:41;;;;;;;20.00;3.15;;;;;;;13.14;62.74;100672.03;10376973;28;20375;-78
2023/04/18 15:11:42;;;;;;;16.30;4.07;;;;;;;13.10;62.78;100683.22;10379569;28;20038;-77
2023/04/18 15:16:42;;;;;;;20.40;3.55;;;;;;;12.89;63.39;100662.50;10379625;28;20077;-76
2023/04/18 15:21:43;;;;;;;19.85;3.72;;;;;;;12.86;63.41;100668.19;10378992;28;20033;-77
2023/04/18 15:26:44;;;;;;;14.45;3.40;;;;;;;12.82;63.96;100690.91;10379083;28;20046;-77
2023/04/18 15:31:45;;;;;;;16.77;3.60;;;;;;;12.70;63.86;100707.25;10360898;28;20090;-76
2023/04/18 15:36:47;;;;;;;19.25;3.28;;;;;;;12.57;64.25;100686.50;10341525;28;20037;-73
2023/04/18 15:41:55;;;;;;;17.73;4.47;;;;;;;12.55;65.22;100709.81;10375317;28;20037;-73
2023/04/18 15:46:56;;;;;;;17.48;3.33;;;;;;;12.45;65.00;100697.72;10378911;28;20038;-76
2023/04/18 15:51:57;;;;;;;16.80;3.92;;;;;;;12.46;65.65;100704.69;10377510;28;20041;-72
2023/04/18 15:56:58;;;;;;;19.05;3.47;;;;;;;11.85;65.78;100625.28;10377705;28;20413;-73
2023/04/18 16:01:59;;;;;;;17.58;4.72;;;;;;;12.08;66.27;100681.31;10378079;28;20049;-75
2023/04/18 16:07:00;;;;;;;15.73;3.67;;;;;;;12.04;66.73;100690.63;10377156;28;20042;-74
2023/04/18 16:12:02;;;;;;;17.10;3.83;;;;;;;12.15;66.92;100713.44;10376061;28;20042;-74
2023/04/18 16:17:02;;;;;;;14.15;3.80;;;;;;;12.09;67.18;100714.94;10359210;28;20080;-74
2023/04/18 16:22:05;;;;;;;16.73;3.35;;;;;;;12.01;67.27;100695.47;11355429;23;20066;-72
2023/04/18 16:27:06;;;;;;;17.30;3.60;;;;;;;12.00;68.03;100707.13;10395269;28;20069;-72
2023/04/18 16:37:17;;;;;;;13.82;3.88;;;;;;;11.54;68.19;100642.91;10516208;23;20424;-72
2023/04/18 16:47:54;;;;;;;19.65;3.92;;;;;;;11.94;69.92;100719.28;10912285;22;20070;-74
2023/04/18 16:52:55;;;;;;;24.85;3.95;;;;;;;11.69;69.50;100690.97;10357451;28;20489;-74
2023/04/18 16:57:55;;;;;;;20.35;4.30;;;;;;;11.68;69.39;100694.63;10375599;28;20042;-72
2023/04/18 17:02:57;;;;;;;11.25;3.63;;;;;;;11.79;69.54;100708.44;10375334;28;20052;-75
2023/04/18 17:07:58;;;;;;;16.92;3.95;;;;;;;11.64;69.71;100680.84;10375878;28;20042;-73
2023/04/18 17:13:01;;;;;;;15.38;3.65;;;;;;;11.71;69.86;100703.13;10375290;28;20042;-78
2023/04/18 17:18:02;;;;;;;14.57;4.30;;;;;;;11.70;70.19;100693.47;10374746;28;20049;-75
2023/04/18 17:23:03;;;;;;;18.85;4.03;;;;;;;11.65;70.15;100691.31;10374969;28;20409;-74
2023/04/18 17:28:06;;;;;;;18.20;3.85;;;;;;;11.22;70.92;100625.97;10374068;28;20049;-76
2023/04/18 17:33:08;;;;;;;19.13;3.28;;;;;;;11.67;70.32;100696.47;10374074;28;20038;-77
2023/04/18 17:38:16;;;;;;;17.92;4.75;;;;;;;11.50;71.36;100666.34;10373836;28;20041;-76
2023/04/18 17:43:16;;;;;;;14.30;4.00;;;;;;;11.45;70.90;100659.88;10374896;28;20045;-76
2023/04/18 17:48:18;;;;;;;16.92;4.07;;;;;;;11.38;70.97;100644.56;10373776;28;20066;-76
2023/04/18 17:53:18;;;;;;;19.17;4.38;;;;;;;11.48;70.73;100663.03;10374272;28;20044;-76
2023/04/18 17:58:20;;;;;;;18.25;4.65;;;;;;;11.62;71.18;100678.31;10372994;28;20133;-76
2023/04/18 18:03:21;;;;;;;17.33;3.92;;;;;;;11.11;71.39;100597.84;10373656;28;20062;-76
2023/04/18 18:08:21;;;;;;;17.73;4.47;;;;;;;11.56;71.68;100667.53;10373882;28;20081;-76
2023/04/18 18:13:22;;;;;;;17.92;3.63;;;;;;;11.49;71.49;100654.06;10373407;28;20034;-76
2023/04/18 18:18:23;;;;;;;16.58;4.15;;;;;;;11.52;72.00;100663.53;10372470;28;20049;-76
2023/04/18 18:23:26;;;;;;;16.33;4.40;;;;;;;11.56;72.10;100678.16;10372935;28;20050;-75
2023/04/18 18:28:27;;;;;;;25.10;4.65;;;;;;;10.45;72.70;100497.78;10372978;28;20045;-76
2023/04/18 18:33:28;;;;;;;21.02;4.30;;;;;;;10.95;72.96;100593.38;10372486;28;20045;-76
2023/04/18 18:38:40;;;;;;;26.58;5.13;;;;;;;11.38;74.01;100651.72;10363591;28;20119;-76
2023/04/18 18:43:41;;;;;;;22.98;3.92;;;;;;;11.46;73.10;100659.72;10370831;28;20052;-76
2023/04/18 18:48:42;;;;;;;20.02;3.88;;;;;;;11.30;73.43;100633.91;10369997;28;20060;-75
2023/04/18 18:53:44;;;;;;;24.25;4.25;;;;;;;11.26;73.74;100629.94;10370824;28;20073;-76
2023/04/18 18:58:45;;;;;;;21.50;4.18;;;;;;;10.76;73.91;100559.09;10371643;28;20081;-76
2023/04/18 19:03:45;;;;;;;20.70;5.00;;;;;;;11.08;74.11;100623.94;10372531;28;20054;-76
2023/04/18 19:08:46;;;;;;;29.80;4.47;;;;;;;10.74;74.25;100583.19;10371652;28;20568;-75
2023/04/18 19:13:50;;;;;;;16.27;4.70;;;;;;;10.68;74.62;100567.09;10372591;28;20046;-77
2023/04/18 19:18:51;;;;;;;27.80;4.90;;;;;;;10.65;74.69;100541.66;10371698;28;20477;-76
2023/04/18 19:23:52;;;;;;;23.88;4.10;;;;;;;10.43;75.07;100521.84;10371367;28;20049;-75
2023/04/18 19:28:53;;;;;;;21.77;3.90;;;;;;;10.97;75.20;100620.59;10337662;28;20046;-76
2023/04/18 19:33:54;;;;;;;20.85;4.22;;;;;;;10.93;74.88;100623.75;10330499;28;20038;-75
2023/04/18 19:38:55;;;;;;;21.33;4.28;;;;;;;10.96;75.38;100636.72;10351976;28;20045;-73
2023/04/18 19:43:55;;;;;;;25.92;4.03;;;;;;;10.81;75.24;100612.59;10344903;28;20410;-73
2023/04/18 19:48:56;;;;;;;20.65;4.30;;;;;;;10.71;75.54;100611.94;10330728;28;20050;-73
2023/04/18 19:53:57;;;;;;;20.77;4.47;;;;;;;10.79;75.58;100598.63;10365916;28;20042;-74
2023/04/18 19:58:58;;;;;;;30.42;4.90;;;;;;;10.81;75.68;100596.66;10377744;28;20091;-75
2023/04/18 20:03:59;;;;;;;19.58;4.68;;;;;;;10.60;75.89;100575.84;10378140;28;20050;-74
2023/04/18 20:08:59;;;;;;;27.27;4.88;;;;;;;10.50;76.20;100570.69;10378104;28;20037;-73
2023/04/18 20:14:03;;;;;;;38.08;5.55;;;;;;;10.02;77.48;100489.00;10377755;28;20494;-74
2023/04/18 20:19:04;;;;;;;21.17;4.35;;;;;;;10.28;77.11;100539.41;10376662;28;20038;-74
2023/04/18 20:24:08;;;;;;;29.58;5.03;;;;;;;10.60;76.90;100590.97;10377483;28;20050;-73
2023/04/18 20:29:09;;;;;;;21.80;4.57;;;;;;;10.16;77.15;100514.13;10376742;28;20048;-73
2023/04/18 20:34:10;;;;;;;35.55;5.63;;;;;;;10.55;76.96;100572.03;10376986;28;20500;-73
2023/04/18 20:44:33;;;;;;;18.30;4.40;;;;;;;10.32;78.07;100553.19;10362288;28;20409;-73
2023/04/18 20:49:33;;;;;;;25.42;4.25;;;;;;;10.32;77.86;100542.56;10376531;28;20160;-74
2023/04/18 20:54:34;;;;;;;25.52;4.90;;;;;;;9.86;78.10;100475.69;10375482;28;20045;-74
2023/04/18 20:59:35;;;;;;;26.05;4.70;;;;;;;10.23;78.14;100539.00;10375967;28;20038;-74
2023/04/18 21:04:36;;;;;;;32.38;5.70;;;;;;;10.18;79.10;100536.84;10375043;28;20038;-73
2023/04/18 21:09:37;;;;;;;32.85;5.22;;;;;;;9.65;79.19;100441.63;10375041;28;20073;-73
2023/04/18 21:14:38;;;;;;;32.00;6.35;;;;;;;10.12;79.06;100515.44;10374573;28;20052;-74
2023/04/18 21:19:44;;;;;;;39.47;5.82;;;;;;;9.96;80.90;100495.81;10375787;28;20050;-73
2023/04/18 21:24:45;;;;;;;35.83;5.75;;;;;;;9.76;81.46;100463.38;10373711;28;20038;-74
2023/04/18 21:29:48;;;;;;;29.05;5.30;;;;;;;9.86;81.42;100492.44;10374227;28;20045;-74
2023/04/18 21:34:49;;;;;;;33.63;5.72;;;;;;;9.44;81.05;100418.16;10373946;28;20042;-73
2023/04/18 21:39:50;;;;;;;31.88;5.28;;;;;;;9.83;81.37;100490.94;10374634;28;20478;-73
2023/04/18 21:44:50;;;;;;;47.63;5.90;;;;;;;9.83;81.18;100485.63;10373738;28;20490;-73
2023/04/18 21:49:51;;;;;;;27.65;5.40;;;;;;;9.19;81.30;100396.00;10360665;28;20537;-73
2023/04/18 21:54:52;;;;;;;35.55;5.78;;;;;;;9.81;81.38;100481.47;10333455;28;20417;-74
2023/04/18 21:59:56;;;;;;;43.42;6.25;;;;;;;9.68;82.27;100458.03;10350265;28;20042;-74
2023/04/18 22:04:57;;;;;;;37.10;5.10;;;;;;;9.62;81.87;100440.13;10373388;28;20054;-73
2023/04/18 22:09:58;;;;;;;29.73;5.10;;;;;;;9.08;81.97;100352.88;10372679;28;20046;-74
2023/04/18 22:14:59;;;;;;;39.33;5.35;;;;;;;9.50;82.31;100436.91;10372505;28;20045;-74
2023/04/18 22:20:00;;;;;;;37.42;5.68;;;;;;;9.03;82.26;100363.09;10373281;28;20050;-76
2023/04/18 22:25:00;;;;;;;37.95;5.82;;;;;;;8.84;82.57;100335.03;10373067;28;20075;-74
2023/04/18 22:30:01;;;;;;;36.58;6.35;;;;;;;9.30;82.27;100432.81;10362175;28;20042;-75
2023/04/18 22:35:02;;;;;;;34.20;5.38;;;;;;;9.27;82.47;100414.59;10331968;28;20046;-74
2023/04/18 22:40:12;;;;;;;36.45;6.15;;;;;;;8.77;83.61;100344.59;10359000;28;20073;-73
2023/04/18 22:45:13;;;;;;;47.35;6.00;;;;;;;9.15;82.62;100395.47;10372168;28;20169;-73
2023/04/18 22:50:14;;;;;;;34.78;5.25;;;;;;;9.20;82.78;100405.63;10353302;28;20057;-74
2023/04/18 22:55:15;;;;;;;47.55;5.28;;;;;;;9.24;83.03;100412.25;10371876;28;20046;-73
2023/04/18 23:00:16;;;;;;;51.38;6.03;;;;;;;9.18;83.25;100408.41;10372130;28;20037;-75
2023/04/18 23:05:17;;;;;;;44.10;5.78;;;;;;;9.14;83.29;100407.91;10372279;28;20038;-74
2023/04/18 23:10:17;;;;;;;45.80;5.78;;;;;;;8.82;83.58;100360.00;10371221;28;20409;-74
2023/04/18 23:15:21;;;;;;;44.80;6.65;;;;;;;8.65;83.29;100330.78;10372043;28;20042;-74
2023/04/18 23:20:22;;;;;;;44.30;5.97;;;;;;;9.06;83.42;100394.63;10371315;28;20042;-73